sensor_id;sensor_type;location;lat;lon;timestamp;pressure;altitude;pressure_sealevel;temperature;humidity
78144;BME280;67394;52.522;13.622;2023-08-08T00:01:22;100320.59;;;14.05;75.10
78144;BME280;67394;52.522;13.622;2023-08-08T00:03:48;100313.78;;;14.01;74.52
78144;BME280;67394;52.522;13.622;2023-08-08T00:06:15;100318.97;;;13.99;74.70
78144;BME280;67394;52.522;13.622;2023-08-08T00:08:42;100312.25;;;13.92;74.92
78144;BME280;67394;52.522;13.622;2023-08-08T00:11:09;100314.97;;;13.84;74.26
78144;BME280;67394;52.522;13.622;2023-08-08T00:13:36;100312.50;;;13.78;74.86
78144;BME280;67394;52.522;13.622;2023-08-08T00:16:03;100333.09;;;13.80;74.34
78144;BME280;67394;52.522;13.622;2023-08-08T00:18:29;100321.06;;;13.79;75.21
78144;BME280;67394;52.522;13.622;2023-08-08T00:20:56;100328.09;;;13.72;74.96
78144;BME280;67394;52.522;13.622;2023-08-08T00:23:22;100321.28;;;13.68;76.00
78144;BME280;67394;52.522;13.622;2023-08-08T00:25:49;100320.41;;;13.69;75.70
78144;BME280;67394;52.522;13.622;2023-08-08T00:28:17;100331.72;;;13.62;76.61
78144;BME280;67394;52.522;13.622;2023-08-08T00:30:44;100312.06;;;13.56;77.45
78144;BME280;67394;52.522;13.622;2023-08-08T00:33:11;100323.34;;;13.49;77.57
78144;BME280;67394;52.522;13.622;2023-08-08T00:35:38;100326.78;;;13.48;78.54
78144;BME280;67394;52.522;13.622;2023-08-08T00:38:05;100329.50;;;13.42;78.43
78144;BME280;67394;52.522;13.622;2023-08-08T00:40:33;100331.19;;;13.43;78.83
78144;BME280;67394;52.522;13.622;2023-08-08T00:43:00;100327.78;;;13.41;78.95
78144;BME280;67394;52.522;13.622;2023-08-08T00:45:28;100333.78;;;13.42;78.21
78144;BME280;67394;52.522;13.622;2023-08-08T00:47:54;100316.72;;;13.36;79.36
78144;BME280;67394;52.522;13.622;2023-08-08T00:50:21;100327.06;;;13.33;79.27
78144;BME280;67394;52.522;13.622;2023-08-08T00:52:49;100334.88;;;13.29;78.89
78144;BME280;67394;52.522;13.622;2023-08-08T00:55:18;100328.88;;;13.27;79.54
78144;BME280;67394;52.522;13.622;2023-08-08T00:57:45;100323.81;;;13.24;79.70
78144;BME280;67394;52.522;13.622;2023-08-08T01:00:13;100323.84;;;13.21;79.44
78144;BME280;67394;52.522;13.622;2023-08-08T01:02:39;100328.13;;;13.22;79.12
78144;BME280;67394;52.522;13.622;2023-08-08T01:05:06;100323.00;;;13.20;79.66
78144;BME280;67394;52.522;13.622;2023-08-08T01:07:54;100330.78;;;13.17;79.65
78144;BME280;67394;52.522;13.622;2023-08-08T01:10:28;100339.41;;;13.11;80.12
78144;BME280;67394;52.522;13.622;2023-08-08T01:13:00;100332.59;;;13.09;80.29
78144;BME280;67394;52.522;13.622;2023-08-08T01:15:29;100340.31;;;13.07;79.54
78144;BME280;67394;52.522;13.622;2023-08-08T01:17:57;100335.19;;;13.07;80.07
78144;BME280;67394;52.522;13.622;2023-08-08T01:20:24;100333.50;;;13.05;80.25
78144;BME280;67394;52.522;13.622;2023-08-08T01:26:11;100329.31;;;12.99;80.10
78144;BME280;67394;52.522;13.622;2023-08-08T01:28:39;100337.06;;;12.96;80.28
78144;BME280;67394;52.522;13.622;2023-08-08T01:31:05;100330.28;;;12.92;79.19
78144;BME280;67394;52.522;13.622;2023-08-08T01:33:32;100334.63;;;12.87;80.11
78144;BME280;67394;52.522;13.622;2023-08-08T01:36:02;100326.97;;;12.84;79.89
78144;BME280;67394;52.522;13.622;2023-08-08T01:38:38;100327.03;;;12.79;81.42
78144;BME280;67394;52.522;13.622;2023-08-08T01:41:07;100321.06;;;12.77;80.58
78144;BME280;67394;52.522;13.622;2023-08-08T01:43:37;100324.53;;;12.75;80.68
78144;BME280;67394;52.522;13.622;2023-08-08T01:46:05;100317.69;;;12.74;80.62
78144;BME280;67394;52.522;13.622;2023-08-08T01:48:32;100325.41;;;12.72;80.45
78144;BME280;67394;52.522;13.622;2023-08-08T01:51:02;100327.94;;;12.77;79.91
78144;BME280;67394;52.522;13.622;2023-08-08T01:53:29;100320.25;;;12.74;79.79
78144;BME280;67394;52.522;13.622;2023-08-08T01:55:56;100316.75;;;12.79;79.43
78144;BME280;67394;52.522;13.622;2023-08-08T01:58:23;100315.91;;;12.79;79.63
78144;BME280;67394;52.522;13.622;2023-08-08T02:00:50;100313.34;;;12.79;78.80
78144;BME280;67394;52.522;13.622;2023-08-08T02:03:16;100315.03;;;12.80;78.80
78144;BME280;67394;52.522;13.622;2023-08-08T02:05:43;100303.94;;;12.76;79.33
78144;BME280;67394;52.522;13.622;2023-08-08T02:08:10;100294.47;;;12.80;79.03
78144;BME280;67394;52.522;13.622;2023-08-08T02:10:37;100308.19;;;12.79;78.84
78144;BME280;67394;52.522;13.622;2023-08-08T02:13:03;100299.66;;;12.77;78.16
78144;BME280;67394;52.522;13.622;2023-08-08T02:15:30;100298.78;;;12.76;78.57
78144;BME280;67394;52.522;13.622;2023-08-08T02:17:56;100294.59;;;12.71;78.74
78144;BME280;67394;52.522;13.622;2023-08-08T02:20:23;100287.69;;;12.73;78.56
78144;BME280;67394;52.522;13.622;2023-08-08T02:22:49;100291.13;;;12.73;78.05
78144;BME280;67394;52.522;13.622;2023-08-08T02:25:16;100275.69;;;12.72;77.74
78144;BME280;67394;52.522;13.622;2023-08-08T02:27:42;100287.66;;;12.74;77.99
78144;BME280;67394;52.522;13.622;2023-08-08T02:30:10;100284.19;;;12.78;77.61
78144;BME280;67394;52.522;13.622;2023-08-08T02:32:36;100294.44;;;12.81;77.24
78144;BME280;67394;52.522;13.622;2023-08-08T02:35:04;100291.06;;;12.78;77.23
78144;BME280;67394;52.522;13.622;2023-08-08T02:37:31;100285.88;;;12.81;76.76
78144;BME280;67394;52.522;13.622;2023-08-08T02:39:57;100291.81;;;12.84;76.39
78144;BME280;67394;52.522;13.622;2023-08-08T02:42:24;100295.25;;;12.83;77.09
78144;BME280;67394;52.522;13.622;2023-08-08T02:44:51;100286.72;;;12.81;78.34
78144;BME280;67394;52.522;13.622;2023-08-08T02:47:18;100284.19;;;12.80;78.45
78144;BME280;67394;52.522;13.622;2023-08-08T02:49:45;100296.19;;;12.78;78.64
78144;BME280;67394;52.522;13.622;2023-08-08T02:52:11;100293.69;;;12.73;79.05
78144;BME280;67394;52.522;13.622;2023-08-08T02:54:38;100296.41;;;12.64;79.59
78144;BME280;67394;52.522;13.622;2023-08-08T02:57:04;100292.91;;;12.68;79.77
78144;BME280;67394;52.522;13.622;2023-08-08T02:59:31;100297.28;;;12.63;80.17
78144;BME280;67394;52.522;13.622;2023-08-08T03:02:01;100291.41;;;12.55;80.19
78144;BME280;67394;52.522;13.622;2023-08-08T03:04:28;100301.69;;;12.54;81.08
78144;BME280;67394;52.522;13.622;2023-08-08T03:06:55;100294.84;;;12.53;81.74
78144;BME280;67394;52.522;13.622;2023-08-08T03:09:22;100305.13;;;12.54;81.74
78144;BME280;67394;52.522;13.622;2023-08-08T03:11:48;100284.53;;;12.56;82.36
78144;BME280;67394;52.522;13.622;2023-08-08T03:14:15;100292.28;;;12.51;82.98
78144;BME280;67394;52.522;13.622;2023-08-08T03:16:42;100291.41;;;12.54;83.08
78144;BME280;67394;52.522;13.622;2023-08-08T03:19:08;100288.06;;;12.49;82.89
78144;BME280;67394;52.522;13.622;2023-08-08T03:21:35;100292.44;;;12.42;83.95
78144;BME280;67394;52.522;13.622;2023-08-08T03:24:02;100279.59;;;12.40;83.49
78144;BME280;67394;52.522;13.622;2023-08-08T03:26:28;100289.06;;;12.38;83.97
78144;BME280;67394;52.522;13.622;2023-08-08T03:28:55;100285.69;;;12.33;84.68
78144;BME280;67394;52.522;13.622;2023-08-08T03:31:21;100285.66;;;12.38;84.49
78144;BME280;67394;52.522;13.622;2023-08-08T03:33:48;100289.09;;;12.37;84.63
78144;BME280;67394;52.522;13.622;2023-08-08T03:36:15;100289.09;;;12.37;85.62
78144;BME280;67394;52.522;13.622;2023-08-08T03:38:42;100285.72;;;12.30;86.00
78144;BME280;67394;52.522;13.622;2023-08-08T03:41:08;100286.66;;;12.26;85.89
78144;BME280;67394;52.522;13.622;2023-08-08T03:43:35;100290.94;;;12.27;86.38
78144;BME280;67394;52.522;13.622;2023-08-08T03:46:02;100293.44;;;12.32;85.85
78144;BME280;67394;52.522;13.622;2023-08-08T03:48:28;100299.53;;;12.25;86.48
78144;BME280;67394;52.522;13.622;2023-08-08T03:50:54;100302.09;;;12.25;86.84
78144;BME280;67394;52.522;13.622;2023-08-08T03:53:21;100296.94;;;12.26;86.86
78144;BME280;67394;52.522;13.622;2023-08-08T03:55:47;100294.38;;;12.25;86.84
78144;BME280;67394;52.522;13.622;2023-08-08T03:58:14;100301.22;;;12.26;87.57
78144;BME280;67394;52.522;13.622;2023-08-08T04:00:40;100297.72;;;12.30;87.06
78144;BME280;67394;52.522;13.622;2023-08-08T04:03:07;100300.25;;;12.36;87.52
78144;BME280;67394;52.522;13.622;2023-08-08T04:05:33;100297.56;;;12.42;86.60
78144;BME280;67394;52.522;13.622;2023-08-08T04:08:00;100306.94;;;12.48;85.83
78144;BME280;67394;52.522;13.622;2023-08-08T04:10:26;100307.78;;;12.48;86.76
78144;BME280;67394;52.522;13.622;2023-08-08T04:12:53;100289.78;;;12.50;86.35
78144;BME280;67394;52.522;13.622;2023-08-08T04:15:19;100297.38;;;12.56;86.81
78144;BME280;67394;52.522;13.622;2023-08-08T04:17:46;100299.94;;;12.59;86.31
78144;BME280;67394;52.522;13.622;2023-08-08T04:20:13;100302.47;;;12.60;87.16
78144;BME280;67394;52.522;13.622;2023-08-08T04:22:42;100292.09;;;12.65;87.38
78144;BME280;67394;52.522;13.622;2023-08-08T04:25:09;100289.50;;;12.66;86.05
78144;BME280;67394;52.522;13.622;2023-08-08T04:27:35;100297.19;;;12.71;86.63
78144;BME280;67394;52.522;13.622;2023-08-08T04:30:02;100296.25;;;12.75;86.79
78144;BME280;67394;52.522;13.622;2023-08-08T04:32:28;100292.91;;;12.70;87.03
78144;BME280;67394;52.522;13.622;2023-08-08T04:34:55;100277.47;;;12.70;87.11
78144;BME280;67394;52.522;13.622;2023-08-08T04:37:22;100277.50;;;12.68;86.99
78144;BME280;67394;52.522;13.622;2023-08-08T04:39:48;100277.50;;;12.68;87.31
78144;BME280;67394;52.522;13.622;2023-08-08T04:42:15;100283.53;;;12.64;87.47
78144;BME280;67394;52.522;13.622;2023-08-08T04:44:42;100281.81;;;12.65;86.93
78144;BME280;67394;52.522;13.622;2023-08-08T04:47:08;100282.63;;;12.70;87.69
78144;BME280;67394;52.522;13.622;2023-08-08T04:49:35;100285.94;;;12.75;87.18
78144;BME280;67394;52.522;13.622;2023-08-08T04:52:04;100287.66;;;12.76;87.52
78144;BME280;67394;52.522;13.622;2023-08-08T04:54:30;100288.53;;;12.75;87.64
78144;BME280;67394;52.522;13.622;2023-08-08T04:56:57;100286.75;;;12.80;86.87
78144;BME280;67394;52.522;13.622;2023-08-08T04:59:23;100296.91;;;12.88;86.64
78144;BME280;67394;52.522;13.622;2023-08-08T05:01:50;100297.66;;;12.94;86.52
78144;BME280;67394;52.522;13.622;2023-08-08T05:04:17;100286.47;;;12.97;86.26
78144;BME280;67394;52.522;13.622;2023-08-08T05:06:45;100295.06;;;12.96;86.78
78144;BME280;67394;52.522;13.622;2023-08-08T05:09:13;100295.91;;;12.96;87.52
78144;BME280;67394;52.522;13.622;2023-08-08T05:11:40;100294.06;;;13.04;85.72
78144;BME280;67394;52.522;13.622;2023-08-08T05:14:06;100299.16;;;13.07;87.07
78144;BME280;67394;52.522;13.622;2023-08-08T05:16:34;100299.16;;;13.07;87.10
78144;BME280;67394;52.522;13.622;2023-08-08T05:19:02;100290.53;;;13.10;86.31
78144;BME280;67394;52.522;13.622;2023-08-08T05:21:29;100292.25;;;13.09;86.22
78144;BME280;67394;52.522;13.622;2023-08-08T05:23:56;100288.81;;;13.10;86.79
78144;BME280;67394;52.522;13.622;2023-08-08T05:26:23;100294.84;;;13.08;86.52
78144;BME280;67394;52.522;13.622;2023-08-08T05:28:49;100291.44;;;13.07;86.74
78144;BME280;67394;52.522;13.622;2023-08-08T05:31:16;100296.53;;;13.10;85.79
78144;BME280;67394;52.522;13.622;2023-08-08T05:33:43;100292.19;;;13.15;86.64
78144;BME280;67394;52.522;13.622;2023-08-08T05:36:09;100295.66;;;13.13;86.79
78144;BME280;67394;52.522;13.622;2023-08-08T05:38:36;100299.13;;;13.10;86.54
78144;BME280;67394;52.522;13.622;2023-08-08T05:41:03;100303.38;;;13.13;86.61
78144;BME280;67394;52.522;13.622;2023-08-08T05:43:30;100289.63;;;13.14;87.47
78144;BME280;67394;52.522;13.622;2023-08-08T05:45:57;100299.00;;;13.19;87.49
78144;BME280;67394;52.522;13.622;2023-08-08T05:48:23;100290.22;;;13.30;86.40
78144;BME280;67394;52.522;13.622;2023-08-08T05:50:50;100294.19;;;13.47;85.37
78144;BME280;67394;52.522;13.622;2023-08-08T05:53:16;100300.91;;;13.56;85.45
78144;BME280;67394;52.522;13.622;2023-08-08T05:55:43;100292.06;;;13.69;85.10
78144;BME280;67394;52.522;13.622;2023-08-08T05:58:11;100300.38;;;13.85;84.42
78144;BME280;67394;52.522;13.622;2023-08-08T06:00:39;100291.56;;;13.95;83.81
78144;BME280;67394;52.522;13.622;2023-08-08T06:03:05;100299.09;;;14.06;83.79
78144;BME280;67394;52.522;13.622;2023-08-08T06:05:32;100291.34;;;14.07;83.82
78144;BME280;67394;52.522;13.622;2023-08-08T06:07:59;100289.66;;;14.05;82.97
78144;BME280;67394;52.522;13.622;2023-08-08T06:10:25;100291.44;;;14.01;84.17
78144;BME280;67394;52.522;13.622;2023-08-08T06:12:52;100302.59;;;14.02;83.88
78144;BME280;67394;52.522;13.622;2023-08-08T06:15:21;100299.97;;;14.05;84.12
78144;BME280;67394;52.522;13.622;2023-08-08T06:17:48;100305.72;;;14.17;83.44
78144;BME280;67394;52.522;13.622;2023-08-08T06:20:15;100297.16;;;14.17;83.73
78144;BME280;67394;52.522;13.622;2023-08-08T06:22:41;100304.47;;;14.35;83.90
78144;BME280;67394;52.522;13.622;2023-08-08T06:25:08;100306.00;;;14.45;82.60
78144;BME280;67394;52.522;13.622;2023-08-08T06:27:35;100308.81;;;14.33;81.82
78144;BME280;67394;52.522;13.622;2023-08-08T06:30:02;100301.78;;;14.41;82.25
78144;BME280;67394;52.522;13.622;2023-08-08T06:32:28;100302.63;;;14.42;82.37
78144;BME280;67394;52.522;13.622;2023-08-08T06:34:55;100299.16;;;14.44;82.32
78144;BME280;67394;52.522;13.622;2023-08-08T06:37:21;100297.22;;;14.54;80.93
78144;BME280;67394;52.522;13.622;2023-08-08T06:39:48;100295.44;;;14.56;81.17
78144;BME280;67394;52.522;13.622;2023-08-08T06:42:17;100284.03;;;14.66;81.49
78144;BME280;67394;52.522;13.622;2023-08-08T06:44:44;100294.25;;;14.71;81.26
78144;BME280;67394;52.522;13.622;2023-08-08T06:47:11;100299.31;;;14.75;80.75
78144;BME280;67394;52.522;13.622;2023-08-08T06:49:38;100300.97;;;14.78;81.30
78144;BME280;67394;52.522;13.622;2023-08-08T06:52:05;100304.44;;;14.77;81.15
78144;BME280;67394;52.522;13.622;2023-08-08T06:54:32;100299.16;;;14.83;81.52
78144;BME280;67394;52.522;13.622;2023-08-08T06:56:59;100294.03;;;14.80;81.45
78144;BME280;67394;52.522;13.622;2023-08-08T06:59:28;100302.66;;;14.79;82.31
78144;BME280;67394;52.522;13.622;2023-08-08T07:01:55;100300.09;;;14.79;82.31
78144;BME280;67394;52.522;13.622;2023-08-08T07:04:22;100299.31;;;14.75;82.37
78144;BME280;67394;52.522;13.622;2023-08-08T07:06:49;100308.13;;;14.65;82.50
78144;BME280;67394;52.522;13.622;2023-08-08T07:09:15;100305.44;;;14.71;82.59
78144;BME280;67394;52.522;13.622;2023-08-08T07:11:43;100305.44;;;14.71;82.00
78144;BME280;67394;52.522;13.622;2023-08-08T07:14:09;100308.88;;;14.72;82.23
78144;BME280;67394;52.522;13.622;2023-08-08T07:16:36;100306.91;;;14.81;82.08
78144;BME280;67394;52.522;13.622;2023-08-08T07:19:03;100306.06;;;14.81;81.67
78144;BME280;67394;52.522;13.622;2023-08-08T07:21:29;100313.69;;;14.85;81.71
78144;BME280;67394;52.522;13.622;2023-08-08T07:23:55;100312.47;;;15.00;82.07
78144;BME280;67394;52.522;13.622;2023-08-08T07:26:22;100310.50;;;15.11;80.09
78144;BME280;67394;52.522;13.622;2023-08-08T07:28:48;100316.22;;;15.24;79.58
78144;BME280;67394;52.522;13.622;2023-08-08T07:31:15;100310.38;;;15.48;79.16
78144;BME280;67394;52.522;13.622;2023-08-08T07:33:41;100311.44;;;15.75;78.60
78144;BME280;67394;52.522;13.622;2023-08-08T07:36:08;100320.38;;;15.94;76.74
78144;BME280;67394;52.522;13.622;2023-08-08T07:38:34;100315.19;;;15.96;75.38
78144;BME280;67394;52.522;13.622;2023-08-08T07:41:01;100323.16;;;15.88;75.48
78144;BME280;67394;52.522;13.622;2023-08-08T07:43:27;100322.53;;;15.79;76.32
78144;BME280;67394;52.522;13.622;2023-08-08T07:45:53;100316.66;;;15.73;76.34
78144;BME280;67394;52.522;13.622;2023-08-08T07:48:20;100319.06;;;15.80;75.84
78144;BME280;67394;52.522;13.622;2023-08-08T07:50:46;100307.94;;;15.78;76.92
78144;BME280;67394;52.522;13.622;2023-08-08T07:53:14;100313.03;;;15.79;76.45
78144;BME280;67394;52.522;13.622;2023-08-08T07:55:40;100314.47;;;15.89;75.35
78144;BME280;67394;52.522;13.622;2023-08-08T07:58:07;100307.41;;;15.96;74.67
78144;BME280;67394;52.522;13.622;2023-08-08T08:00:34;100320.63;;;16.16;75.10
78144;BME280;67394;52.522;13.622;2023-08-08T08:03:00;100318.09;;;16.15;72.83
78144;BME280;67394;52.522;13.622;2023-08-08T08:05:27;100311.22;;;16.14;72.68
78144;BME280;67394;52.522;13.622;2023-08-08T08:07:54;100311.44;;;16.06;73.21
78144;BME280;67394;52.522;13.622;2023-08-08T08:10:23;100305.97;;;16.17;74.06
78144;BME280;67394;52.522;13.622;2023-08-08T08:12:50;100316.69;;;16.32;72.88
78144;BME280;67394;52.522;13.622;2023-08-08T08:15:17;100307.38;;;16.27;71.98
78144;BME280;67394;52.522;13.622;2023-08-08T08:17:43;100305.97;;;16.44;73.96
78144;BME280;67394;52.522;13.622;2023-08-08T08:20:10;100315.47;;;16.44;71.92
78144;BME280;67394;52.522;13.622;2023-08-08T08:22:37;100301.38;;;16.54;72.68
78144;BME280;67394;52.522;13.622;2023-08-08T08:25:04;100309.25;;;16.51;72.54
78144;BME280;67394;52.522;13.622;2023-08-08T08:27:31;100299.53;;;16.58;72.98
78144;BME280;67394;52.522;13.622;2023-08-08T08:29:57;100301.28;;;16.85;73.86
78144;BME280;67394;52.522;13.622;2023-08-08T08:32:24;100295.03;;;16.92;71.65
78144;BME280;67394;52.522;13.622;2023-08-08T08:34:50;100297.63;;;16.92;70.77
78144;BME280;67394;52.522;13.622;2023-08-08T08:37:17;100294.56;;;17.06;71.36
78144;BME280;67394;52.522;13.622;2023-08-08T08:39:43;100291.00;;;17.10;70.24
78144;BME280;67394;52.522;13.622;2023-08-08T08:42:13;100289.69;;;16.97;69.55
78144;BME280;67394;52.522;13.622;2023-08-08T08:44:45;100296.56;;;16.98;69.66
78144;BME280;67394;52.522;13.622;2023-08-08T08:47:13;100296.38;;;17.04;70.58
78144;BME280;67394;52.522;13.622;2023-08-08T08:49:41;100290.53;;;16.97;68.96
78144;BME280;67394;52.522;13.622;2023-08-08T08:52:09;100291.44;;;17.23;68.94
78144;BME280;67394;52.522;13.622;2023-08-08T08:54:35;100284.66;;;17.18;67.83
78144;BME280;67394;52.522;13.622;2023-08-08T08:57:02;100292.75;;;17.09;67.94
78144;BME280;67394;52.522;13.622;2023-08-08T08:59:29;100296.94;;;17.13;67.81
78144;BME280;67394;52.522;13.622;2023-08-08T09:01:56;100290.81;;;17.16;67.20
78144;BME280;67394;52.522;13.622;2023-08-08T09:04:24;100289.88;;;17.17;67.38
78144;BME280;67394;52.522;13.622;2023-08-08T09:06:50;100304.66;;;17.15;65.98
78144;BME280;67394;52.522;13.622;2023-08-08T09:09:17;100297.25;;;17.29;66.83
78144;BME280;67394;52.522;13.622;2023-08-08T09:11:49;100297.25;;;17.54;66.91
78144;BME280;67394;52.522;13.622;2023-08-08T09:14:20;100298.00;;;17.58;67.31
78144;BME280;67394;52.522;13.622;2023-08-08T09:16:48;100288.16;;;17.69;66.41
78144;BME280;67394;52.522;13.622;2023-08-08T09:19:15;100281.59;;;17.82;67.00
78144;BME280;67394;52.522;13.622;2023-08-08T09:21:42;100294.53;;;18.07;65.52
78144;BME280;67394;52.522;13.622;2023-08-08T09:24:09;100286.00;;;18.03;65.42
78144;BME280;67394;52.522;13.622;2023-08-08T09:26:36;100283.66;;;17.97;65.46
78144;BME280;67394;52.522;13.622;2023-08-08T09:29:03;100278.06;;;18.08;65.24
78144;BME280;67394;52.522;13.622;2023-08-08T09:31:29;100279.63;;;18.12;63.92
78144;BME280;67394;52.522;13.622;2023-08-08T09:33:57;100274.59;;;18.31;63.35
78144;BME280;67394;52.522;13.622;2023-08-08T09:36:24;100274.03;;;18.44;64.63
78144;BME280;67394;52.522;13.622;2023-08-08T09:38:52;100276.44;;;18.72;63.50
78144;BME280;67394;52.522;13.622;2023-08-08T09:41:20;100275.97;;;18.62;61.83
78144;BME280;67394;52.522;13.622;2023-08-08T09:43:50;100271.88;;;18.55;62.55
78144;BME280;67394;52.522;13.622;2023-08-08T09:46:22;100262.47;;;18.53;62.71
78144;BME280;67394;52.522;13.622;2023-08-08T09:48:49;100271.16;;;18.30;62.45
78144;BME280;67394;52.522;13.622;2023-08-08T09:51:16;100273.25;;;18.20;62.12
78144;BME280;67394;52.522;13.622;2023-08-08T09:53:43;100260.66;;;18.11;63.31
78144;BME280;67394;52.522;13.622;2023-08-08T09:56:10;100266.44;;;18.63;61.69
78144;BME280;67394;52.522;13.622;2023-08-08T09:58:37;100259.41;;;18.43;62.17
78144;BME280;67394;52.522;13.622;2023-08-08T10:01:05;100256.16;;;18.60;60.77
78144;BME280;67394;52.522;13.622;2023-08-08T10:03:31;100254.81;;;18.50;59.04
78144;BME280;67394;52.522;13.622;2023-08-08T10:05:58;100248.06;;;18.68;60.29
78144;BME280;67394;52.522;13.622;2023-08-08T10:08:24;100234.28;;;19.28;59.86
78144;BME280;67394;52.522;13.622;2023-08-08T10:10:51;100243.69;;;18.90;57.26
78144;BME280;67394;52.522;13.622;2023-08-08T10:13:22;100245.41;;;18.69;60.11
78144;BME280;67394;52.522;13.622;2023-08-08T10:15:52;100247.34;;;18.42;60.16
78144;BME280;67394;52.522;13.622;2023-08-08T10:18:23;100264.78;;;18.15;63.99
78144;BME280;67394;52.522;13.622;2023-08-08T10:20:51;100276.47;;;17.80;69.86
78144;BME280;67394;52.522;13.622;2023-08-08T10:23:18;100279.91;;;17.31;77.92
78144;BME280;67394;52.522;13.622;2023-08-08T10:25:47;100282.28;;;17.12;82.41
78144;BME280;67394;52.522;13.622;2023-08-08T10:28:17;100271.56;;;16.97;80.38
78144;BME280;67394;52.522;13.622;2023-08-08T10:30:53;100264.00;;;16.91;79.83
78144;BME280;67394;52.522;13.622;2023-08-08T10:33:22;100253.19;;;16.78;78.29
78144;BME280;67394;52.522;13.622;2023-08-08T10:38:26;100251.28;;;17.09;79.56
78144;BME280;67394;52.522;13.622;2023-08-08T10:40:56;100245.31;;;17.07;76.75
78144;BME280;67394;52.522;13.622;2023-08-08T10:43:29;100254.09;;;17.28;76.67
78144;BME280;67394;52.522;13.622;2023-08-08T10:46:02;100241.34;;;17.95;73.75
78144;BME280;67394;52.522;13.622;2023-08-08T10:49:10;100230.66;;;18.48;70.41
78144;BME280;67394;52.522;13.622;2023-08-08T10:51:40;100228.44;;;18.39;66.14
78144;BME280;67394;52.522;13.622;2023-08-08T10:54:20;100216.19;;;18.64;65.42
78144;BME280;67394;52.522;13.622;2023-08-08T10:56:51;100218.78;;;19.06;65.00
78144;BME280;67394;52.522;13.622;2023-08-08T10:59:21;100227.78;;;18.97;63.01
78144;BME280;67394;52.522;13.622;2023-08-08T11:01:51;100212.69;;;18.43;60.45
78144;BME280;67394;52.522;13.622;2023-08-08T11:04:20;100226.56;;;18.20;62.89
78144;BME280;67394;52.522;13.622;2023-08-08T11:06:48;100232.31;;;18.05;62.29
78144;BME280;67394;52.522;13.622;2023-08-08T11:09:15;100234.72;;;17.65;68.06
78144;BME280;67394;52.522;13.622;2023-08-08T11:11:42;100250.28;;;17.38;70.91
78144;BME280;67394;52.522;13.622;2023-08-08T11:14:20;100230.53;;;17.36;72.61
78144;BME280;67394;52.522;13.622;2023-08-08T11:16:48;100233.47;;;17.75;75.53
78144;BME280;67394;52.522;13.622;2023-08-08T11:19:16;100233.03;;;17.87;73.92
78144;BME280;67394;52.522;13.622;2023-08-08T11:21:43;100223.34;;;17.90;69.28
78144;BME280;67394;52.522;13.622;2023-08-08T11:24:11;100222.22;;;18.43;69.11
78144;BME280;67394;52.522;13.622;2023-08-08T11:26:40;100220.56;;;18.84;64.55
78144;BME280;67394;52.522;13.622;2023-08-08T11:29:07;100220.50;;;19.26;63.78
78144;BME280;67394;52.522;13.622;2023-08-08T11:31:37;100224.00;;;19.45;59.88
78144;BME280;67394;52.522;13.622;2023-08-08T11:34:04;100213.22;;;19.54;58.73
78144;BME280;67394;52.522;13.622;2023-08-08T11:36:32;100218.13;;;19.60;56.98
78144;BME280;67394;52.522;13.622;2023-08-08T11:39:03;100227.56;;;19.43;57.38
78144;BME280;67394;52.522;13.622;2023-08-08T11:41:30;100225.19;;;18.97;57.88
78144;BME280;67394;52.522;13.622;2023-08-08T11:43:58;100225.91;;;18.59;62.33
78144;BME280;67394;52.522;13.622;2023-08-08T11:46:25;100244.13;;;18.36;64.89
78144;BME280;67394;52.522;13.622;2023-08-08T11:48:52;100260.66;;;18.11;65.52
78144;BME280;67394;52.522;13.622;2023-08-08T11:51:19;100281.84;;;17.99;63.73
78144;BME280;67394;52.522;13.622;2023-08-08T11:53:50;100269.88;;;17.72;61.97
78144;BME280;67394;52.522;13.622;2023-08-08T11:56:18;100268.66;;;17.57;63.27
78144;BME280;67394;52.522;13.622;2023-08-08T11:58:47;100263.84;;;17.46;65.81
78144;BME280;67394;52.522;13.622;2023-08-08T12:01:13;100264.69;;;17.22;65.32
78144;BME280;67394;52.522;13.622;2023-08-08T12:03:41;100251.50;;;17.28;66.34
78144;BME280;67394;52.522;13.622;2023-08-08T12:06:15;100251.22;;;17.61;66.45
78144;BME280;67394;52.522;13.622;2023-08-08T12:08:47;100239.22;;;18.28;64.03
78144;BME280;67394;52.522;13.622;2023-08-08T12:11:15;100240.88;;;18.74;62.83
78144;BME280;67394;52.522;13.622;2023-08-08T12:13:43;100243.31;;;19.19;62.14
78144;BME280;67394;52.522;13.622;2023-08-08T12:16:12;100234.88;;;19.34;60.98
78144;BME280;67394;52.522;13.622;2023-08-08T12:18:43;100243.94;;;19.65;59.30
78144;BME280;67394;52.522;13.622;2023-08-08T12:21:10;100235.97;;;19.69;59.26
78144;BME280;67394;52.522;13.622;2023-08-08T12:23:37;100240.19;;;20.09;59.95
78144;BME280;67394;52.522;13.622;2023-08-08T12:26:04;100242.44;;;20.17;59.41
78144;BME280;67394;52.522;13.622;2023-08-08T12:28:31;100244.06;;;20.20;59.18
78144;BME280;67394;52.522;13.622;2023-08-08T12:30:59;100238.91;;;20.37;56.95
78144;BME280;67394;52.522;13.622;2023-08-08T12:33:26;100239.38;;;20.64;58.19
78144;BME280;67394;52.522;13.622;2023-08-08T12:35:52;100228.25;;;20.60;56.33
78144;BME280;67394;52.522;13.622;2023-08-08T12:38:19;100237.69;;;20.80;56.07
78144;BME280;67394;52.522;13.622;2023-08-08T12:40:46;100229.16;;;20.59;53.71
78144;BME280;67394;52.522;13.622;2023-08-08T12:43:12;100225.19;;;20.69;54.92
78144;BME280;67394;52.522;13.622;2023-08-08T12:45:39;100219.91;;;20.35;54.35
78144;BME280;67394;52.522;13.622;2023-08-08T12:48:06;100230.47;;;19.76;55.12